sensor_id;sensor_type;location;lat;lon;timestamp;temperature;humidity
13686;DHT22;6915;48.296;8.874;2022-08-06T00:02:25;17.70;99.90
13686;DHT22;6915;48.296;8.874;2022-08-06T00:04:53;17.70;99.90
13686;DHT22;6915;48.296;8.874;2022-08-06T00:07:20;17.80;99.90
13686;DHT22;6915;48.296;8.874;2022-08-06T00:09:47;17.90;99.90
13686;DHT22;6915;48.296;8.874;2022-08-06T00:12:15;17.90;99.90
13686;DHT22;6915;48.296;8.874;2022-08-06T00:14:43;17.90;99.90
13686;DHT22;6915;48.296;8.874;2022-08-06T00:17:10;17.90;99.90
13686;DHT22;6915;48.296;8.874;2022-08-06T00:19:37;17.90;99.90
13686;DHT22;6915;48.296;8.874;2022-08-06T00:22:04;17.80;99.90
13686;DHT22;6915;48.296;8.874;2022-08-06T00:24:31;17.70;99.90
13686;DHT22;6915;48.296;8.874;2022-08-06T00:26:58;17.70;99.90
13686;DHT22;6915;48.296;8.874;2022-08-06T00:29:25;17.70;99.90
13686;DHT22;6915;48.296;8.874;2022-08-06T00:31:53;17.60;99.90
13686;DHT22;6915;48.296;8.874;2022-08-06T00:34:20;17.60;99.90
13686;DHT22;6915;48.296;8.874;2022-08-06T00:36:46;17.70;99.90
13686;DHT22;6915;48.296;8.874;2022-08-06T00:39:14;17.70;99.90
13686;DHT22;6915;48.296;8.874;2022-08-06T00:41:40;17.60;99.90
13686;DHT22;6915;48.296;8.874;2022-08-06T00:44:08;17.50;99.90
13686;DHT22;6915;48.296;8.874;2022-08-06T00:46:35;17.40;99.90
13686;DHT22;6915;48.296;8.874;2022-08-06T00:49:03;17.40;99.90
13686;DHT22;6915;48.296;8.874;2022-08-06T00:51:30;17.30;99.90
13686;DHT22;6915;48.296;8.874;2022-08-06T00:53:57;17.30;99.90
13686;DHT22;6915;48.296;8.874;2022-08-06T00:56:24;17.20;99.90
13686;DHT22;6915;48.296;8.874;2022-08-06T00:58:51;17.20;99.90
13686;DHT22;6915;48.296;8.874;2022-08-06T01:01:18;17.20;99.90
13686;DHT22;6915;48.296;8.874;2022-08-06T01:03:45;17.20;99.90
13686;DHT22;6915;48.296;8.874;2022-08-06T01:06:14;17.20;99.90
13686;DHT22;6915;48.296;8.874;2022-08-06T01:08:41;17.10;99.90
13686;DHT22;6915;48.296;8.874;2022-08-06T01:11:08;17.10;99.90
13686;DHT22;6915;48.296;8.874;2022-08-06T01:13:35;17.10;99.90
13686;DHT22;6915;48.296;8.874;2022-08-06T01:16:08;17.10;99.90
13686;DHT22;6915;48.296;8.874;2022-08-06T01:18:41;17.10;99.90
13686;DHT22;6915;48.296;8.874;2022-08-06T01:21:21;17.10;99.90
13686;DHT22;6915;48.296;8.874;2022-08-06T01:24:07;17.10;99.90
13686;DHT22;6915;48.296;8.874;2022-08-06T01:26:43;17.00;99.90
13686;DHT22;6915;48.296;8.874;2022-08-06T01:29:20;17.00;99.90
13686;DHT22;6915;48.296;8.874;2022-08-06T01:31:52;17.00;99.90
13686;DHT22;6915;48.296;8.874;2022-08-06T01:34:23;17.00;99.90
13686;DHT22;6915;48.296;8.874;2022-08-06T01:36:58;17.00;99.90
13686;DHT22;6915;48.296;8.874;2022-08-06T01:39:27;17.00;99.90
13686;DHT22;6915;48.296;8.874;2022-08-06T01:41:55;17.00;99.90
13686;DHT22;6915;48.296;8.874;2022-08-06T01:44:28;17.00;99.90
13686;DHT22;6915;48.296;8.874;2022-08-06T01:46:58;16.90;99.90
13686;DHT22;6915;48.296;8.874;2022-08-06T01:49:29;16.90;99.90
13686;DHT22;6915;48.296;8.874;2022-08-06T01:51:59;16.90;99.90
13686;DHT22;6915;48.296;8.874;2022-08-06T01:54:27;16.80;99.90
13686;DHT22;6915;48.296;8.874;2022-08-06T01:56:56;16.80;99.90
13686;DHT22;6915;48.296;8.874;2022-08-06T01:59:30;16.80;99.90
13686;DHT22;6915;48.296;8.874;2022-08-06T02:01:59;16.80;99.90
13686;DHT22;6915;48.296;8.874;2022-08-06T02:04:30;16.80;99.90
13686;DHT22;6915;48.296;8.874;2022-08-06T02:06:59;16.80;99.90
13686;DHT22;6915;48.296;8.874;2022-08-06T02:09:26;16.80;99.90
13686;DHT22;6915;48.296;8.874;2022-08-06T02:11:56;16.80;99.90
13686;DHT22;6915;48.296;8.874;2022-08-06T02:14:28;16.70;99.90
13686;DHT22;6915;48.296;8.874;2022-08-06T02:16:56;16.70;99.90
13686;DHT22;6915;48.296;8.874;2022-08-06T02:19:26;16.70;99.90
13686;DHT22;6915;48.296;8.874;2022-08-06T02:21:56;16.80;99.90
13686;DHT22;6915;48.296;8.874;2022-08-06T02:24:26;16.70;99.90
13686;DHT22;6915;48.296;8.874;2022-08-06T02:26:55;16.70;99.90
13686;DHT22;6915;48.296;8.874;2022-08-06T02:29:25;16.70;99.90
13686;DHT22;6915;48.296;8.874;2022-08-06T02:31:53;16.70;99.90
13686;DHT22;6915;48.296;8.874;2022-08-06T02:34:21;16.70;99.90
13686;DHT22;6915;48.296;8.874;2022-08-06T02:36:54;16.60;99.90
13686;DHT22;6915;48.296;8.874;2022-08-06T02:39:24;16.60;99.90
13686;DHT22;6915;48.296;8.874;2022-08-06T02:42:02;16.60;99.90
13686;DHT22;6915;48.296;8.874;2022-08-06T02:44:38;16.60;99.90
13686;DHT22;6915;48.296;8.874;2022-08-06T02:47:09;16.60;99.90
13686;DHT22;6915;48.296;8.874;2022-08-06T02:49:41;16.60;99.90
13686;DHT22;6915;48.296;8.874;2022-08-06T02:52:14;16.50;99.90
13686;DHT22;6915;48.296;8.874;2022-08-06T02:54:48;16.50;99.90
13686;DHT22;6915;48.296;8.874;2022-08-06T02:57:21;16.50;99.90
13686;DHT22;6915;48.296;8.874;2022-08-06T02:59:55;16.50;99.90
13686;DHT22;6915;48.296;8.874;2022-08-06T03:02:26;16.40;99.90
13686;DHT22;6915;48.296;8.874;2022-08-06T03:04:56;16.40;99.90
13686;DHT22;6915;48.296;8.874;2022-08-06T03:07:26;16.40;99.90
13686;DHT22;6915;48.296;8.874;2022-08-06T03:09:54;16.40;99.90
13686;DHT22;6915;48.296;8.874;2022-08-06T03:12:22;16.40;99.90
13686;DHT22;6915;48.296;8.874;2022-08-06T03:14:53;16.50;99.90
13686;DHT22;6915;48.296;8.874;2022-08-06T03:17:21;16.50;99.90
13686;DHT22;6915;48.296;8.874;2022-08-06T03:19:49;16.40;99.90
13686;DHT22;6915;48.296;8.874;2022-08-06T03:22:18;16.30;99.90
13686;DHT22;6915;48.296;8.874;2022-08-06T03:24:45;16.30;99.90
13686;DHT22;6915;48.296;8.874;2022-08-06T03:27:15;16.30;99.90
13686;DHT22;6915;48.296;8.874;2022-08-06T03:29:43;16.30;99.90
13686;DHT22;6915;48.296;8.874;2022-08-06T03:32:13;16.40;99.90
13686;DHT22;6915;48.296;8.874;2022-08-06T03:34:42;16.40;99.90
13686;DHT22;6915;48.296;8.874;2022-08-06T03:37:10;16.40;99.90
13686;DHT22;6915;48.296;8.874;2022-08-06T03:39:39;16.40;99.90
13686;DHT22;6915;48.296;8.874;2022-08-06T03:42:08;16.50;99.90
13686;DHT22;6915;48.296;8.874;2022-08-06T03:44:35;16.40;99.90
13686;DHT22;6915;48.296;8.874;2022-08-06T03:47:06;16.40;99.90
13686;DHT22;6915;48.296;8.874;2022-08-06T03:49:38;16.30;99.90
13686;DHT22;6915;48.296;8.874;2022-08-06T03:52:06;16.30;99.90
13686;DHT22;6915;48.296;8.874;2022-08-06T03:54:36;16.30;99.90
13686;DHT22;6915;48.296;8.874;2022-08-06T03:57:06;16.30;99.90
13686;DHT22;6915;48.296;8.874;2022-08-06T03:59:37;16.30;99.90
13686;DHT22;6915;48.296;8.874;2022-08-06T04:02:04;16.30;99.90
13686;DHT22;6915;48.296;8.874;2022-08-06T04:04:32;16.20;99.90
13686;DHT22;6915;48.296;8.874;2022-08-06T04:07:02;16.30;99.90
13686;DHT22;6915;48.296;8.874;2022-08-06T04:09:31;16.30;99.90
13686;DHT22;6915;48.296;8.874;2022-08-06T04:11:59;16.30;99.90
13686;DHT22;6915;48.296;8.874;2022-08-06T04:14:26;16.30;99.90
13686;DHT22;6915;48.296;8.874;2022-08-06T04:16:54;16.20;99.90
13686;DHT22;6915;48.296;8.874;2022-08-06T04:19:22;16.30;99.90
13686;DHT22;6915;48.296;8.874;2022-08-06T04:21:49;16.30;99.90
13686;DHT22;6915;48.296;8.874;2022-08-06T04:24:17;16.30;99.90
13686;DHT22;6915;48.296;8.874;2022-08-06T04:26:48;16.20;99.90
13686;DHT22;6915;48.296;8.874;2022-08-06T04:29:17;16.20;99.90
13686;DHT22;6915;48.296;8.874;2022-08-06T04:31:46;16.20;99.90
13686;DHT22;6915;48.296;8.874;2022-08-06T04:34:20;16.20;99.90
13686;DHT22;6915;48.296;8.874;2022-08-06T04:36:48;16.10;99.90
13686;DHT22;6915;48.296;8.874;2022-08-06T04:39:18;16.10;99.90
13686;DHT22;6915;48.296;8.874;2022-08-06T04:41:46;16.10;99.90
13686;DHT22;6915;48.296;8.874;2022-08-06T04:44:13;16.10;99.90
13686;DHT22;6915;48.296;8.874;2022-08-06T04:46:40;16.10;99.90
13686;DHT22;6915;48.296;8.874;2022-08-06T04:49:09;16.10;99.90
13686;DHT22;6915;48.296;8.874;2022-08-06T04:51:37;16.10;99.90
13686;DHT22;6915;48.296;8.874;2022-08-06T04:54:05;16.10;99.90
13686;DHT22;6915;48.296;8.874;2022-08-06T04:56:33;16.10;99.90
13686;DHT22;6915;48.296;8.874;2022-08-06T04:59:00;16.10;99.90
13686;DHT22;6915;48.296;8.874;2022-08-06T05:01:27;16.20;99.90
13686;DHT22;6915;48.296;8.874;2022-08-06T05:03:54;16.20;99.90
13686;DHT22;6915;48.296;8.874;2022-08-06T05:06:25;16.10;99.90
13686;DHT22;6915;48.296;8.874;2022-08-06T05:08:59;16.20;99.90
13686;DHT22;6915;48.296;8.874;2022-08-06T05:11:29;16.20;99.90
13686;DHT22;6915;48.296;8.874;2022-08-06T05:14:01;16.10;99.90
13686;DHT22;6915;48.296;8.874;2022-08-06T05:16:32;16.20;99.90
13686;DHT22;6915;48.296;8.874;2022-08-06T05:19:02;16.20;99.90
13686;DHT22;6915;48.296;8.874;2022-08-06T05:21:34;16.20;99.90
13686;DHT22;6915;48.296;8.874;2022-08-06T05:24:02;16.20;99.90
13686;DHT22;6915;48.296;8.874;2022-08-06T05:26:30;16.10;99.90
13686;DHT22;6915;48.296;8.874;2022-08-06T05:28:58;16.10;99.90
13686;DHT22;6915;48.296;8.874;2022-08-06T05:31:30;16.00;99.90
13686;DHT22;6915;48.296;8.874;2022-08-06T05:33:57;16.00;99.90
13686;DHT22;6915;48.296;8.874;2022-08-06T05:36:24;16.00;99.90
13686;DHT22;6915;48.296;8.874;2022-08-06T05:38:51;16.00;99.90
13686;DHT22;6915;48.296;8.874;2022-08-06T05:41:18;16.00;99.90
13686;DHT22;6915;48.296;8.874;2022-08-06T05:43:45;15.90;99.90
13686;DHT22;6915;48.296;8.874;2022-08-06T05:46:16;16.00;99.90
13686;DHT22;6915;48.296;8.874;2022-08-06T05:48:49;16.00;99.90
13686;DHT22;6915;48.296;8.874;2022-08-06T05:51:23;15.90;99.90
13686;DHT22;6915;48.296;8.874;2022-08-06T05:53:57;16.00;99.90
13686;DHT22;6915;48.296;8.874;2022-08-06T05:56:29;16.00;99.90
13686;DHT22;6915;48.296;8.874;2022-08-06T05:58:59;16.00;99.90
13686;DHT22;6915;48.296;8.874;2022-08-06T06:01:30;16.00;99.90
13686;DHT22;6915;48.296;8.874;2022-08-06T06:03:58;16.00;99.90
13686;DHT22;6915;48.296;8.874;2022-08-06T06:06:26;16.00;99.90
13686;DHT22;6915;48.296;8.874;2022-08-06T06:08:53;16.00;99.90
13686;DHT22;6915;48.296;8.874;2022-08-06T06:11:21;16.10;99.90
13686;DHT22;6915;48.296;8.874;2022-08-06T06:13:49;16.10;99.90
13686;DHT22;6915;48.296;8.874;2022-08-06T06:16:22;16.20;99.90
13686;DHT22;6915;48.296;8.874;2022-08-06T06:19:01;16.20;99.90
13686;DHT22;6915;48.296;8.874;2022-08-06T06:21:35;16.30;99.90
13686;DHT22;6915;48.296;8.874;2022-08-06T06:24:13;16.40;99.90
13686;DHT22;6915;48.296;8.874;2022-08-06T06:26:46;16.50;99.90
13686;DHT22;6915;48.296;8.874;2022-08-06T06:29:21;16.50;99.90
13686;DHT22;6915;48.296;8.874;2022-08-06T06:31:59;16.50;99.90
13686;DHT22;6915;48.296;8.874;2022-08-06T06:34:43;16.50;99.90
13686;DHT22;6915;48.296;8.874;2022-08-06T06:37:21;16.40;99.90
13686;DHT22;6915;48.296;8.874;2022-08-06T06:40:00;16.40;99.90
13686;DHT22;6915;48.296;8.874;2022-08-06T06:42:34;16.40;99.90
13686;DHT22;6915;48.296;8.874;2022-08-06T06:45:07;16.40;99.90
13686;DHT22;6915;48.296;8.874;2022-08-06T06:47:43;16.40;99.90
13686;DHT22;6915;48.296;8.874;2022-08-06T06:50:21;16.40;99.90
13686;DHT22;6915;48.296;8.874;2022-08-06T06:52:50;16.40;99.10
13686;DHT22;6915;48.296;8.874;2022-08-06T06:55:22;16.50;99.90
13686;DHT22;6915;48.296;8.874;2022-08-06T06:57:53;16.60;99.90
13686;DHT22;6915;48.296;8.874;2022-08-06T07:00:21;16.70;99.90
13686;DHT22;6915;48.296;8.874;2022-08-06T07:02:51;16.70;99.90
13686;DHT22;6915;48.296;8.874;2022-08-06T07:05:20;16.70;89.60
13686;DHT22;6915;48.296;8.874;2022-08-06T07:07:50;16.80;99.90
13686;DHT22;6915;48.296;8.874;2022-08-06T07:10:19;17.00;98.70
13686;DHT22;6915;48.296;8.874;2022-08-06T07:12:47;17.00;70.00
13686;DHT22;6915;48.296;8.874;2022-08-06T07:15:15;17.10;96.50
13686;DHT22;6915;48.296;8.874;2022-08-06T07:17:44;17.10;40.40
13686;DHT22;6915;48.296;8.874;2022-08-06T07:20:12;17.10;44.20
13686;DHT22;6915;48.296;8.874;2022-08-06T07:22:42;17.00;59.70
13686;DHT22;6915;48.296;8.874;2022-08-06T07:25:13;16.90;39.60
13686;DHT22;6915;48.296;8.874;2022-08-06T07:27:45;16.90;97.40
13686;DHT22;6915;48.296;8.874;2022-08-06T07:30:14;16.90;68.70
13686;DHT22;6915;48.296;8.874;2022-08-06T07:32:42;16.90;99.90
13686;DHT22;6915;48.296;8.874;2022-08-06T07:35:11;17.00;95.30
13686;DHT22;6915;48.296;8.874;2022-08-06T07:37:42;17.10;90.60
13686;DHT22;6915;48.296;8.874;2022-08-06T07:40:18;17.20;69.70
13686;DHT22;6915;48.296;8.874;2022-08-06T07:42:54;17.10;63.20
13686;DHT22;6915;48.296;8.874;2022-08-06T07:45:23;17.10;70.40
13686;DHT22;6915;48.296;8.874;2022-08-06T07:47:52;17.00;73.80
13686;DHT22;6915;48.296;8.874;2022-08-06T07:50:22;17.10;93.90
13686;DHT22;6915;48.296;8.874;2022-08-06T07:52:51;17.10;58.60
13686;DHT22;6915;48.296;8.874;2022-08-06T07:55:19;17.10;91.20
13686;DHT22;6915;48.296;8.874;2022-08-06T07:57:47;17.10;86.60
13686;DHT22;6915;48.296;8.874;2022-08-06T08:00:15;17.00;95.70
13686;DHT22;6915;48.296;8.874;2022-08-06T08:02:42;17.00;99.90
13686;DHT22;6915;48.296;8.874;2022-08-06T08:05:31;17.10;97.50
13686;DHT22;6915;48.296;8.874;2022-08-06T08:08:17;17.20;74.90
13686;DHT22;6915;48.296;8.874;2022-08-06T08:10:44;17.30;46.00
13686;DHT22;6915;48.296;8.874;2022-08-06T08:13:12;17.30;99.90
13686;DHT22;6915;48.296;8.874;2022-08-06T08:15:41;17.50;75.80
13686;DHT22;6915;48.296;8.874;2022-08-06T08:18:09;17.60;33.20
13686;DHT22;6915;48.296;8.874;2022-08-06T08:20:38;17.50;20.30
13686;DHT22;6915;48.296;8.874;2022-08-06T08:23:06;17.50;22.50
13686;DHT22;6915;48.296;8.874;2022-08-06T08:25:35;17.50;63.20
13686;DHT22;6915;48.296;8.874;2022-08-06T08:28:02;17.50;39.50
13686;DHT22;6915;48.296;8.874;2022-08-06T08:30:30;17.60;61.40
13686;DHT22;6915;48.296;8.874;2022-08-06T08:32:57;17.80;31.10
13686;DHT22;6915;48.296;8.874;2022-08-06T08:35:24;17.90;1.00
13686;DHT22;6915;48.296;8.874;2022-08-06T08:37:51;18.40;1.00
13686;DHT22;6915;48.296;8.874;2022-08-06T08:40:18;18.50;1.00
13686;DHT22;6915;48.296;8.874;2022-08-06T08:42:48;18.50;1.00
13686;DHT22;6915;48.296;8.874;2022-08-06T08:45:19;18.60;1.00
13686;DHT22;6915;48.296;8.874;2022-08-06T08:47:50;18.70;1.00
13686;DHT22;6915;48.296;8.874;2022-08-06T08:50:19;19.10;1.00
13686;DHT22;6915;48.296;8.874;2022-08-06T08:52:48;19.10;1.00
13686;DHT22;6915;48.296;8.874;2022-08-06T08:55:18;19.10;1.00
13686;DHT22;6915;48.296;8.874;2022-08-06T08:57:48;19.10;1.00
13686;DHT22;6915;48.296;8.874;2022-08-06T09:00:18;19.60;1.00
13686;DHT22;6915;48.296;8.874;2022-08-06T09:02:45;19.50;1.00
13686;DHT22;6915;48.296;8.874;2022-08-06T09:05:12;19.60;1.00
13686;DHT22;6915;48.296;8.874;2022-08-06T09:07:40;19.50;1.00
13686;DHT22;6915;48.296;8.874;2022-08-06T09:10:09;19.30;1.00
13686;DHT22;6915;48.296;8.874;2022-08-06T09:12:36;19.20;1.00
13686;DHT22;6915;48.296;8.874;2022-08-06T09:15:05;19.30;1.00
13686;DHT22;6915;48.296;8.874;2022-08-06T09:17:32;19.30;1.00
13686;DHT22;6915;48.296;8.874;2022-08-06T09:19:59;19.20;1.00
13686;DHT22;6915;48.296;8.874;2022-08-06T09:22:26;19.30;1.00
13686;DHT22;6915;48.296;8.874;2022-08-06T09:24:53;19.50;1.00
13686;DHT22;6915;48.296;8.874;2022-08-06T09:27:20;19.30;1.00
13686;DHT22;6915;48.296;8.874;2022-08-06T09:29:49;19.20;1.00
13686;DHT22;6915;48.296;8.874;2022-08-06T09:32:39;19.10;1.00
13686;DHT22;6915;48.296;8.874;2022-08-06T09:35:22;19.10;1.00
13686;DHT22;6915;48.296;8.874;2022-08-06T09:37:50;19.20;1.00
13686;DHT22;6915;48.296;8.874;2022-08-06T09:40:25;18.90;1.00
13686;DHT22;6915;48.296;8.874;2022-08-06T09:42:52;18.80;1.00
13686;DHT22;6915;48.296;8.874;2022-08-06T09:45:20;18.90;1.00
13686;DHT22;6915;48.296;8.874;2022-08-06T09:47:59;19.00;1.00
13686;DHT22;6915;48.296;8.874;2022-08-06T09:50:36;19.20;1.00
13686;DHT22;6915;48.296;8.874;2022-08-06T09:53:03;19.00;1.00
13686;DHT22;6915;48.296;8.874;2022-08-06T09:55:31;18.90;1.00
13686;DHT22;6915;48.296;8.874;2022-08-06T09:57:58;18.90;1.00
13686;DHT22;6915;48.296;8.874;2022-08-06T10:00:26;19.00;1.00
13686;DHT22;6915;48.296;8.874;2022-08-06T10:02:59;19.10;1.00
13686;DHT22;6915;48.296;8.874;2022-08-06T10:05:27;19.20;1.00
13686;DHT22;6915;48.296;8.874;2022-08-06T10:08:09;19.10;1.00
13686;DHT22;6915;48.296;8.874;2022-08-06T10:10:44;19.10;1.00
13686;DHT22;6915;48.296;8.874;2022-08-06T10:13:17;18.90;1.00
13686;DHT22;6915;48.296;8.874;2022-08-06T10:15:44;18.80;1.00
13686;DHT22;6915;48.296;8.874;2022-08-06T10:18:31;18.90;1.00
13686;DHT22;6915;48.296;8.874;2022-08-06T10:21:03;19.00;1.00
13686;DHT22;6915;48.296;8.874;2022-08-06T10:23:33;18.90;1.00
13686;DHT22;6915;48.296;8.874;2022-08-06T10:26:03;18.80;1.00
13686;DHT22;6915;48.296;8.874;2022-08-06T10:28:32;18.90;1.00
13686;DHT22;6915;48.296;8.874;2022-08-06T10:31:02;19.10;1.00
13686;DHT22;6915;48.296;8.874;2022-08-06T10:33:33;19.20;1.00
13686;DHT22;6915;48.296;8.874;2022-08-06T10:36:06;19.40;1.00
13686;DHT22;6915;48.296;8.874;2022-08-06T10:38:35;19.50;1.00
13686;DHT22;6915;48.296;8.874;2022-08-06T10:41:07;19.60;1.00
13686;DHT22;6915;48.296;8.874;2022-08-06T10:43:35;19.70;1.00
13686;DHT22;6915;48.296;8.874;2022-08-06T10:46:05;19.60;1.00
13686;DHT22;6915;48.296;8.874;2022-08-06T10:48:34;19.80;1.00
13686;DHT22;6915;48.296;8.874;2022-08-06T10:51:03;19.90;1.00
13686;DHT22;6915;48.296;8.874;2022-08-06T10:53:30;19.70;1.00
13686;DHT22;6915;48.296;8.874;2022-08-06T10:56:00;19.70;1.00
13686;DHT22;6915;48.296;8.874;2022-08-06T10:58:29;19.80;1.00
13686;DHT22;6915;48.296;8.874;2022-08-06T11:00:57;19.80;1.00
13686;DHT22;6915;48.296;8.874;2022-08-06T11:03:35;19.80;1.00
13686;DHT22;6915;48.296;8.874;2022-08-06T11:09:10;19.70;1.00
13686;DHT22;6915;48.296;8.874;2022-08-06T11:11:52;19.60;1.00
13686;DHT22;6915;48.296;8.874;2022-08-06T11:14:24;19.80;1.00
13686;DHT22;6915;48.296;8.874;2022-08-06T11:16:55;20.00;1.00
13686;DHT22;6915;48.296;8.874;2022-08-06T11:19:40;20.30;1.00
13686;DHT22;6915;48.296;8.874;2022-08-06T11:22:08;20.40;1.00
13686;DHT22;6915;48.296;8.874;2022-08-06T11:24:49;20.50;1.00
13686;DHT22;6915;48.296;8.874;2022-08-06T11:27:48;20.40;1.00
13686;DHT22;6915;48.296;8.874;2022-08-06T11:30:16;20.50;1.00
13686;DHT22;6915;48.296;8.874;2022-08-06T11:32:45;20.50;1.00
13686;DHT22;6915;48.296;8.874;2022-08-06T11:35:43;20.60;1.00
13686;DHT22;6915;48.296;8.874;2022-08-06T11:38:12;20.50;1.00
13686;DHT22;6915;48.296;8.874;2022-08-06T11:41:00;20.40;1.00
13686;DHT22;6915;48.296;8.874;2022-08-06T11:43:46;20.60;1.00
13686;DHT22;6915;48.296;8.874;2022-08-06T11:46:21;20.60;1.00
13686;DHT22;6915;48.296;8.874;2022-08-06T11:49:17;20.70;1.00
13686;DHT22;6915;48.296;8.874;2022-08-06T11:51:48;20.70;1.00
13686;DHT22;6915;48.296;8.874;2022-08-06T11:54:16;20.60;1.00
13686;DHT22;6915;48.296;8.874;2022-08-06T11:57:18;20.60;1.00
13686;DHT22;6915;48.296;8.874;2022-08-06T11:59:48;20.70;1.00
13686;DHT22;6915;48.296;8.874;2022-08-06T12:02:46;21.30;1.00
13686;DHT22;6915;48.296;8.874;2022-08-06T12:05:39;21.70;1.00
13686;DHT22;6915;48.296;8.874;2022-08-06T12:08:16;21.80;1.00
13686;DHT22;6915;48.296;8.874;2022-08-06T12:13:45;21.80;1.00
13686;DHT22;6915;48.296;8.874;2022-08-06T12:16:32;21.30;1.00
13686;DHT22;6915;48.296;8.874;2022-08-06T12:19:00;21.30;1.00
13686;DHT22;6915;48.296;8.874;2022-08-06T12:21:28;21.60;1.00
13686;DHT22;6915;48.296;8.874;2022-08-06T12:23:57;21.80;1.00
13686;DHT22;6915;48.296;8.874;2022-08-06T12:26:30;21.80;1.00
13686;DHT22;6915;48.296;8.874;2022-08-06T12:29:01;21.40;1.00
13686;DHT22;6915;48.296;8.874;2022-08-06T12:31:32;21.50;1.00
13686;DHT22;6915;48.296;8.874;2022-08-06T12:33:59;21.60;1.00
13686;DHT22;6915;48.296;8.874;2022-08-06T12:36:28;21.70;1.00
13686;DHT22;6915;48.296;8.874;2022-08-06T12:38:58;21.70;1.00
13686;DHT22;6915;48.296;8.874;2022-08-06T12:41:37;21.90;1.00
13686;DHT22;6915;48.296;8.874;2022-08-06T12:44:07;21.90;1.00
13686;DHT22;6915;48.296;8.874;2022-08-06T12:46:34;22.00;1.00
13686;DHT22;6915;48.296;8.874;2022-08-06T12:49:01;21.70;1.00
13686;DHT22;6915;48.296;8.874;2022-08-06T12:51:28;21.70;1.00
13686;DHT22;6915;48.296;8.874;2022-08-06T12:54:00;21.70;1.00
13686;DHT22;6915;48.296;8.874;2022-08-06T12:56:29;21.80;1.00
13686;DHT22;6915;48.296;8.874;2022-08-06T12:58:57;21.60;1.00
13686;DHT22;6915;48.296;8.874;2022-08-06T13:01:27;21.60;1.00
13686;DHT22;6915;48.296;8.874;2022-08-06T13:03:56;21.60;1.00
13686;DHT22;6915;48.296;8.874;2022-08-06T13:06:27;22.00;1.00
13686;DHT22;6915;48.296;8.874;2022-08-06T13:08:56;21.80;1.00
13686;DHT22;6915;48.296;8.874;2022-08-06T13:11:33;21.90;1.00
13686;DHT22;6915;48.296;8.874;2022-08-06T13:14:08;22.00;1.00
13686;DHT22;6915;48.296;8.874;2022-08-06T13:16:43;21.90;1.00
13686;DHT22;6915;48.296;8.874;2022-08-06T13:19:12;22.10;1.00
13686;DHT22;6915;48.296;8.874;2022-08-06T13:21:40;22.70;1.00
13686;DHT22;6915;48.296;8.874;2022-08-06T13:24:09;22.90;1.00
13686;DHT22;6915;48.296;8.874;2022-08-06T13:26:51;22.60;1.00
13686;DHT22;6915;48.296;8.874;2022-08-06T13:29:22;22.50;1.00
13686;DHT22;6915;48.296;8.874;2022-08-06T13:32:00;22.50;1.00
13686;DHT22;6915;48.296;8.874;2022-08-06T13:34:28;22.50;1.00
13686;DHT22;6915;48.296;8.874;2022-08-06T13:36:57;22.70;1.00
13686;DHT22;6915;48.296;8.874;2022-08-06T13:39:27;22.40;1.00
13686;DHT22;6915;48.296;8.874;2022-08-06T13:42:04;22.50;1.00
13686;DHT22;6915;48.296;8.874;2022-08-06T13:44:33;22.40;1.00
13686;DHT22;6915;48.296;8.874;2022-08-06T13:47:00;22.70;1.00
13686;DHT22;6915;48.296;8.874;2022-08-06T13:49:28;22.60;1.00
13686;DHT22;6915;48.296;8.874;2022-08-06T13:51:55;22.30;1.00
13686;DHT22;6915;48.296;8.874;2022-08-06T13:54:23;22.30;1.00
13686;DHT22;6915;48.296;8.874;2022-08-06T13:56:52;22.10;1.00
13686;DHT22;6915;48.296;8.874;2022-08-06T13:59:21;22.20;1.00
13686;DHT22;6915;48.296;8.874;2022-08-06T14:01:49;22.30;1.00
13686;DHT22;6915;48.296;8.874;2022-08-06T14:04:17;22.30;1.00
13686;DHT22;6915;48.296;8.874;2022-08-06T14:06:47;22.20;1.00
13686;DHT22;6915;48.296;8.874;2022-08-06T14:09:16;22.30;1.00
13686;DHT22;6915;48.296;8.874;2022-08-06T14:11:43;22.40;1.00
13686;DHT22;6915;48.296;8.874;2022-08-06T14:14:11;22.30;1.00
13686;DHT22;6915;48.296;8.874;2022-08-06T14:16:38;22.10;1.00
13686;DHT22;6915;48.296;8.874;2022-08-06T14:19:05;22.00;1.00
13686;DHT22;6915;48.296;8.874;2022-08-06T14:21:32;21.90;1.00
13686;DHT22;6915;48.296;8.874;2022-08-06T14:23:59;22.10;1.00
13686;DHT22;6915;48.296;8.874;2022-08-06T14:26:26;22.20;1.00
13686;DHT22;6915;48.296;8.874;2022-08-06T14:28:53;22.10;1.00
13686;DHT22;6915;48.296;8.874;2022-08-06T14:31:21;21.90;1.00
13686;DHT22;6915;48.296;8.874;2022-08-06T14:33:48;21.80;1.00
13686;DHT22;6915;48.296;8.874;2022-08-06T14:36:15;22.00;1.00
13686;DHT22;6915;48.296;8.874;2022-08-06T14:38:42;22.10;1.00
13686;DHT22;6915;48.296;8.874;2022-08-06T14:41:11;22.20;1.00
13686;DHT22;6915;48.296;8.874;2022-08-06T14:43:55;22.00;1.00
13686;DHT22;6915;48.296;8.874;2022-08-06T14:46:41;21.80;1.00
13686;DHT22;6915;48.296;8.874;2022-08-06T14:49:08;21.90;1.00
13686;DHT22;6915;48.296;8.874;2022-08-06T14:51:35;22.00;1.00
13686;DHT22;6915;48.296;8.874;2022-08-06T14:54:02;22.00;1.00
13686;DHT22;6915;48.296;8.874;2022-08-06T14:56:30;22.00;1.00
13686;DHT22;6915;48.296;8.874;2022-08-06T14:58:57;22.30;1.00
13686;DHT22;6915;48.296;8.874;2022-08-06T15:01:24;22.40;1.00
13686;DHT22;6915;48.296;8.874;2022-08-06T15:03:52;22.20;1.00
13686;DHT22;6915;48.296;8.874;2022-08-06T15:06:19;22.30;1.00
13686;DHT22;6915;48.296;8.874;2022-08-06T15:08:46;22.20;1.00
13686;DHT22;6915;48.296;8.874;2022-08-06T15:11:13;22.20;1.00
13686;DHT22;6915;48.296;8.874;2022-08-06T15:13:40;22.30;1.00
13686;DHT22;6915;48.296;8.874;2022-08-06T15:16:07;22.40;1.00
13686;DHT22;6915;48.296;8.874;2022-08-06T15:18:34;22.40;1.00
13686;DHT22;6915;48.296;8.874;2022-08-06T15:21:03;22.20;1.00
13686;DHT22;6915;48.296;8.874;2022-08-06T15:23:30;22.20;1.00
13686;DHT22;6915;48.296;8.874;2022-08-06T15:25:58;22.30;1.00
13686;DHT22;6915;48.296;8.874;2022-08-06T15:28:25;22.50;1.00
13686;DHT22;6915;48.296;8.874;2022-08-06T15:30:52;22.70;1.00
13686;DHT22;6915;48.296;8.874;2022-08-06T15:33:19;22.60;1.00
13686;DHT22;6915;48.296;8.874;2022-08-06T15:35:46;22.60;1.00
13686;DHT22;6915;48.296;8.874;2022-08-06T15:38:15;22.70;1.00
13686;DHT22;6915;48.296;8.874;2022-08-06T15:40:42;22.80;1.00
13686;DHT22;6915;48.296;8.874;2022-08-06T15:43:08;23.10;1.00
13686;DHT22;6915;48.296;8.874;2022-08-06T15:45:35;23.00;1.00
13686;DHT22;6915;48.296;8.874;2022-08-06T15:48:03;22.80;1.00
13686;DHT22;6915;48.296;8.874;2022-08-06T15:50:30;22.80;1.00
13686;DHT22;6915;48.296;8.874;2022-08-06T15:52:57;22.70;1.00
13686;DHT22;6915;48.296;8.874;2022-08-06T15:55:27;22.60;1.00
13686;DHT22;6915;48.296;8.874;2022-08-06T15:57:54;22.80;1.00
13686;DHT22;6915;48.296;8.874;2022-08-06T16:00:21;22.50;1.00
13686;DHT22;6915;48.296;8.874;2022-08-06T16:02:48;22.50;1.00
13686;DHT22;6915;48.296;8.874;2022-08-06T16:05:15;22.50;1.00
13686;DHT22;6915;48.296;8.874;2022-08-06T16:07:42;22.40;1.00
13686;DHT22;6915;48.296;8.874;2022-08-06T16:10:09;22.50;1.00
13686;DHT22;6915;48.296;8.874;2022-08-06T16:12:37;22.60;1.00
13686;DHT22;6915;48.296;8.874;2022-08-06T16:15:05;22.70;1.00
13686;DHT22;6915;48.296;8.874;2022-08-06T16:17:32;22.70;1.00
13686;DHT22;6915;48.296;8.874;2022-08-06T16:19:59;22.50;1.00